Time;durP1;ratioP1;P1;durP2;ratioP2;P2;SDS_P1;SDS_P2;PMS_P1;PMS_P2;Temp;Humidity;BMP_temperature;BMP_pressure;BME280_temperature;BME280_humidity;BME280_pressure;Samples;Min_cycle;Max_cycle;Signal;HPM_P1;HPM_P2
2023/01/06 00:00:38;;;;;;;9.90;2.63;;;;;;;-15.21;56.09;99541.31;4787016;29;20066;-80
2023/01/06 00:03:05;;;;;;;6.23;2.57;;;;;;;-15.20;56.97;99523.09;4772464;30;20126;-81
2023/01/06 00:05:31;;;;;;;7.57;2.50;;;;;;;-14.93;56.22;99566.25;4785724;30;20054;-84
2023/01/06 00:07:58;;;;;;;5.53;1.50;;;;;;;-15.04;56.13;99570.28;4769459;30;20083;-80
2023/01/06 00:10:24;;;;;;;4.93;1.80;;;;;;;-15.27;56.12;99543.28;4771245;30;20194;-79
2023/01/06 00:12:51;;;;;;;4.50;2.10;;;;;;;-15.28;57.00;99541.50;4768931;30;20064;-79
2023/01/06 00:15:18;;;;;;;4.70;2.13;;;;;;;-15.05;56.69;99586.03;4784214;29;20052;-81
2023/01/06 00:17:44;;;;;;;7.73;1.90;;;;;;;-15.18;56.78;99569.06;4770670;30;20044;-81
2023/01/06 00:20:12;;;;;;;4.13;2.20;;;;;;;-15.01;56.61;99584.66;4771274;30;20047;-81
2023/01/06 00:22:39;;;;;;;4.37;1.90;;;;;;;-15.20;56.58;99560.56;4769954;30;20407;-81
2023/01/06 00:25:08;;;;;;;5.83;2.03;;;;;;;-15.49;56.31;99561.31;4771686;30;20039;-79
2023/01/06 00:27:36;;;;;;;4.83;2.07;;;;;;;-15.25;56.61;99604.22;4785029;29;20470;-79
2023/01/06 00:30:03;;;;;;;5.60;2.17;;;;;;;-15.43;56.58;99578.47;4786495;30;20118;-79
2023/01/06 00:32:30;;;;;;;7.00;1.97;;;;;;;-15.41;56.91;99581.13;4771707;30;20048;-82
2023/01/06 00:34:57;;;;;;;4.20;1.90;;;;;;;-15.50;56.49;99594.50;4777495;30;20047;-81
2023/01/06 00:37:23;;;;;;;5.60;2.13;;;;;;;-15.35;56.00;99610.00;4774663;30;20113;-80
2023/01/06 00:39:50;;;;;;;6.33;2.30;;;;;;;-15.34;56.27;99606.75;4755256;30;20438;-82
2023/01/06 00:42:16;;;;;;;3.13;1.60;;;;;;;-15.39;55.77;99617.94;4768389;30;20050;-80
2023/01/06 00:44:42;;;;;;;7.47;2.37;;;;;;;-15.28;56.52;99635.53;4785635;30;20501;-80
2023/01/06 00:47:10;;;;;;;6.47;2.40;;;;;;;-15.36;55.85;99630.69;4768361;29;20051;-80
2023/01/06 00:49:37;;;;;;;6.03;2.00;;;;;;;-15.44;55.91;99614.13;4770403;30;20075;-80
2023/01/06 00:52:05;;;;;;;5.87;2.20;;;;;;;-15.69;56.52;99557.06;4784775;29;20604;-82
2023/01/06 00:54:31;;;;;;;5.90;2.23;;;;;;;-15.18;56.55;99640.59;4771995;29;20039;-82
2023/01/06 00:56:57;;;;;;;5.30;2.10;;;;;;;-15.36;56.73;99615.72;4771148;29;20052;-84
2023/01/06 00:59:25;;;;;;;5.30;2.50;;;;;;;-15.58;56.50;99585.47;4769261;30;20048;-81
2023/01/06 01:01:54;;;;;;;9.27;2.60;;;;;;;-15.27;56.32;99644.75;4769671;30;20047;-80
2023/01/06 01:04:22;;;;;;;5.30;2.10;;;;;;;-15.13;56.26;99653.50;4768299;30;20126;-80
2023/01/06 01:06:50;;;;;;;6.90;2.33;;;;;;;-15.20;55.68;99650.44;4769342;30;20054;-81
2023/01/06 01:09:22;;;;;;;7.60;2.97;;;;;;;-15.58;56.05;99604.53;4768534;30;20054;-79
2023/01/06 01:14:35;;;;;;;6.13;2.87;;;;;;;-15.30;55.69;99657.81;4784303;30;20430;-80
2023/01/06 01:17:01;;;;;;;5.90;2.50;;;;;;;-15.34;55.72;99666.66;4785721;30;20047;-79
2023/01/06 01:19:29;;;;;;;3.27;2.07;;;;;;;-15.31;56.32;99676.03;4770913;30;20051;-81
2023/01/06 01:21:55;;;;;;;3.97;2.00;;;;;;;-15.66;56.40;99616.31;4770221;30;20134;-80
2023/01/06 01:24:22;;;;;;;6.63;2.40;;;;;;;-15.30;55.97;99685.28;4785015;30;20430;-82
2023/01/06 01:26:49;;;;;;;5.23;2.07;;;;;;;-15.79;56.21;99622.69;4753974;30;20617;-81
2023/01/06 01:29:17;;;;;;;7.70;2.47;;;;;;;-15.40;55.38;99700.19;4769101;30;20472;-79
2023/01/06 01:31:46;;;;;;;5.17;1.93;;;;;;;-15.72;55.62;99653.16;4768782;30;20050;-81
2023/01/06 01:34:14;;;;;;;5.30;2.30;;;;;;;-15.81;55.02;99664.06;4783544;30;20051;-80
2023/01/06 01:36:41;;;;;;;10.13;2.30;;;;;;;-15.59;56.15;99708.47;4770783;30;20043;-81
2023/01/06 01:39:08;;;;;;;7.03;2.20;;;;;;;-15.65;55.53;99723.72;4768794;30;20078;-80
2023/01/06 01:41:34;;;;;;;5.50;2.50;;;;;;;-15.92;55.51;99688.06;4783563;30;20051;-81
2023/01/06 01:44:22;;;;;;;4.37;1.40;;;;;;;-15.78;55.26;99725.81;4783888;30;20050;-80
2023/01/06 01:46:49;;;;;;;2.80;1.60;;;;;;;-16.09;55.67;99701.41;4770462;30;20086;-79
2023/01/06 01:49:19;;;;;;;5.07;2.17;;;;;;;-15.84;55.51;99741.09;4778003;29;20044;-81
2023/01/06 01:51:48;;;;;;;3.50;2.05;;;;;;;-15.91;55.27;99736.31;4770661;30;20055;-81
2023/01/06 01:54:28;;;;;;;3.77;2.10;;;;;;;-16.16;56.36;99719.00;4771801;30;20570;-81
2023/01/06 01:57:04;;;;;;;3.37;1.63;;;;;;;-16.15;55.74;99740.72;4771296;29;20048;-80
2023/01/06 01:59:33;;;;;;;8.00;1.87;;;;;;;-16.21;54.58;99740.13;4781253;30;20051;-82
2023/01/06 02:01:59;;;;;;;5.17;1.93;;;;;;;-16.49;56.22;99694.25;4787937;30;20055;-79
2023/01/06 02:04:27;;;;;;;3.70;2.03;;;;;;;-16.18;55.02;99745.41;4767876;30;20458;-81
2023/01/06 02:06:54;;;;;;;3.67;2.27;;;;;;;-16.45;56.06;99709.66;4782053;30;20422;-81
2023/01/06 02:09:27;;;;;;;5.77;2.07;;;;;;;-16.23;55.32;99752.47;4772716;29;20146;-80
2023/01/06 02:11:55;;;;;;;3.93;1.97;;;;;;;-16.37;55.62;99727.84;4782769;30;20487;-81
2023/01/06 02:14:25;;;;;;;6.73;2.27;;;;;;;-16.60;55.54;99699.09;4782977;29;20507;-82
2023/01/06 02:17:33;;;;;;;5.43;2.23;;;;;;;-16.25;55.30;99751.44;4768745;30;20514;-80
2023/01/06 02:20:23;;;;;;;7.17;2.10;;;;;;;-16.31;55.31;99759.94;4768720;30;20062;-81
2023/01/06 02:23:07;;;;;;;4.07;1.57;;;;;;;-16.36;54.90;99762.00;4769372;30;20106;-79
2023/01/06 02:25:57;;;;;;;7.00;2.03;;;;;;;-16.86;55.52;99691.56;4769255;30;20153;-80
2023/01/06 02:29:08;;;;;;;5.57;2.00;;;;;;;-16.44;55.69;99766.25;4786064;30;20051;-79
2023/01/06 02:31:47;;;;;;;3.08;1.42;;;;;;;-16.51;55.43;99763.88;4755303;30;20480;-81
2023/01/06 02:34:26;;;;;;;5.33;2.03;;;;;;;-16.50;55.61;99780.59;4753401;30;20139;-81
2023/01/06 02:37:13;;;;;;;6.80;1.87;;;;;;;-16.58;54.83;99783.94;4757741;30;20062;-81
2023/01/06 02:40:24;;;;;;;2.97;1.27;;;;;;;-16.71;55.21;99766.91;4760499;30;20139;-81
2023/01/06 02:42:54;;;;;;;;;;;;;;;-16.72;54.76;99776.00;4769193;30;20532;-79
2023/01/06 02:45:52;;;;;;;2.00;1.03;;;;;;;-16.83;54.56;99791.47;4767431;29;19926;-80
2023/01/06 02:48:37;;;;;;;2.67;1.43;;;;;;;-16.87;54.73;99792.81;4755208;30;20055;-82
2023/01/06 02:51:33;;;;;;;4.57;1.73;;;;;;;-17.36;54.81;99768.94;4755317;30;20431;-80
2023/01/06 02:54:06;;;;;;;2.77;1.30;;;;;;;-17.08;54.64;99803.16;4755040;30;20044;-81
2023/01/06 02:56:38;;;;;;;4.17;1.57;;;;;;;-17.61;55.59;99710.84;4758475;30;20145;-80
2023/01/06 02:59:17;;;;;;;6.17;2.13;;;;;;;-16.95;55.35;99831.03;4773804;30;20046;-82
2023/01/06 03:01:47;;;;;;;1.80;1.13;;;;;;;-16.98;54.18;99815.78;4791311;29;20134;-80
2023/01/06 03:04:28;;;;;;;6.83;2.33;;;;;;;-17.03;54.27;99811.97;4795185;30;20086;-82
2023/01/06 03:06:57;;;;;;;6.93;2.15;;;;;;;-16.99;54.83;99829.84;4775739;30;20178;-79
2023/01/06 03:09:30;;;;;;;3.97;1.80;;;;;;;-16.98;55.08;99826.63;4790253;30;20059;-81
2023/01/06 03:11:59;;;;;;;6.43;1.80;;;;;;;-17.03;54.64;99826.91;4771180;30;20430;-81
2023/01/06 03:14:32;;;;;;;4.00;1.80;;;;;;;-16.92;55.45;99840.41;4771181;30;20052;-82
2023/01/06 03:16:59;;;;;;;5.10;1.40;;;;;;;-17.04;55.43;99831.00;4769471;30;20058;-81
2023/01/06 03:19:30;;;;;;;4.88;1.95;;;;;;;-16.95;55.17;99858.41;4769589;30;20096;-80
2023/01/06 03:21:59;;;;;;;5.27;1.97;;;;;;;-17.20;54.78;99830.19;4784540;30;20040;-81
2023/01/06 03:24:26;;;;;;;4.33;1.50;;;;;;;-16.97;54.34;99864.84;4769710;30;20056;-81
2023/01/06 03:26:52;;;;;;;5.70;2.20;;;;;;;-16.91;55.12;99859.59;4784627;29;20138;-79
2023/01/06 03:29:21;;;;;;;2.23;1.57;;;;;;;-17.18;55.06;99818.78;4784548;30;20048;-81
2023/01/06 03:32:02;;;;;;;5.43;1.73;;;;;;;-16.91;55.22;99872.03;4784806;30;20067;-80
2023/01/06 03:35:09;;;;;;;3.03;1.40;;;;;;;-16.92;54.68;99875.25;4769248;30;20046;-79
2023/01/06 03:37:51;;;;;;;7.83;1.70;;;;;;;-16.85;54.42;99868.53;4784174;30;20533;-83
2023/01/06 03:40:36;;;;;;;4.60;1.60;;;;;;;-16.89;54.11;99873.06;4769020;30;20047;-78
2023/01/06 03:43:30;;;;;;;4.33;2.07;;;;;;;-17.24;55.28;99815.66;4783692;29;20055;-82
2023/01/06 03:46:27;;;;;;;2.75;1.55;;;;;;;-17.09;53.92;99871.09;4784329;30;20054;-80
2023/01/06 03:48:59;;;;;;;4.47;1.73;;;;;;;-17.04;54.58;99888.25;4784518;29;20079;-80
2023/01/06 03:51:56;;;;;;;4.23;1.47;;;;;;;-17.01;54.22;99891.06;4784453;30;20058;-81
2023/01/06 03:54:48;;;;;;;4.90;1.50;;;;;;;-17.00;55.25;99906.88;4783900;30;20047;-80
2023/01/06 03:57:26;;;;;;;4.90;2.33;;;;;;;-16.99;55.09;99894.59;4768857;30;20078;-79
2023/01/06 03:59:57;;;;;;;12.07;3.73;;;;;;;-17.28;54.86;99861.78;4783932;29;20056;-80
2023/01/06 04:02:24;;;;;;;9.73;2.90;;;;;;;-17.06;54.67;99907.13;4769225;30;20140;-82
2023/01/06 04:05:08;;;;;;;15.87;4.77;;;;;;;-17.14;54.54;99903.00;4784837;29;20054;-80
2023/01/06 04:07:35;;;;;;;13.70;3.57;;;;;;;-17.32;54.96;99897.00;4769296;30;20079;-80
2023/01/06 04:10:01;;;;;;;11.60;3.07;;;;;;;-17.56;54.76;99844.03;4786587;30;20558;-81
2023/01/06 04:12:37;;;;;;;6.40;3.30;;;;;;;-17.32;54.58;99912.81;4768352;29;20063;-78
2023/01/06 04:15:09;;;;;;;5.20;1.93;;;;;;;-17.36;54.53;99900.81;4784742;30;20044;-80
2023/01/06 04:17:38;;;;;;;4.53;1.60;;;;;;;-17.22;54.53;99933.69;4796839;30;20047;-81
2023/01/06 04:20:06;;;;;;;5.47;1.90;;;;;;;-17.32;54.10;99921.91;4784825;30;20056;-82
2023/01/06 04:22:34;;;;;;;10.70;3.13;;;;;;;-17.24;53.73;99955.03;4754978;30;20055;-83
2023/01/06 04:25:00;;;;;;;13.70;4.97;;;;;;;-17.67;54.14;99880.22;4791915;30;20058;-80
2023/01/06 04:27:29;;;;;;;10.80;2.60;;;;;;;-17.80;53.42;99880.56;4798417;30;20062;-81
2023/01/06 04:29:55;;;;;;;6.60;2.80;;;;;;;-18.29;54.68;99786.91;4772775;30;20107;-82
2023/01/06 04:32:21;;;;;;;8.73;2.97;;;;;;;-17.42;54.93;99930.03;4786323;30;20153;-79
2023/01/06 04:34:48;;;;;;;9.13;2.67;;;;;;;-17.46;54.00;99927.94;4786083;30;20051;-81
2023/01/06 04:37:14;;;;;;;5.63;2.20;;;;;;;-17.77;53.50;99880.88;4771858;30;20581;-81
2023/01/06 04:39:41;;;;;;;10.30;2.87;;;;;;;-17.35;54.45;99966.38;4771273;30;20048;-81
2023/01/06 04:42:07;;;;;;;13.30;5.53;;;;;;;-17.41;54.09;99951.69;4771463;30;20124;-81
2023/01/06 04:44:32;;;;;;;11.60;3.63;;;;;;;-17.47;53.54;99956.03;4769295;30;20154;-81
2023/01/06 04:46:58;;;;;;;5.83;2.03;;;;;;;-17.93;53.93;99918.19;4755146;30;20048;-79
2023/01/06 04:49:25;;;;;;;9.53;2.43;;;;;;;-17.55;54.36;99970.16;4750651;30;20525;-80
2023/01/06 04:51:51;;;;;;;4.33;2.17;;;;;;;-17.51;55.05;99973.84;4736151;30;20070;-80
2023/01/06 04:54:16;;;;;;;6.27;2.50;;;;;;;-17.56;54.01;99978.34;4736342;30;20051;-81
2023/01/06 04:56:42;;;;;;;5.43;2.43;;;;;;;-17.73;53.73;99961.66;4754738;30;20079;-80
2023/01/06 04:59:09;;;;;;;11.73;4.13;;;;;;;-17.82;53.97;99943.28;4769492;30;20078;-80
2023/01/06 05:01:35;;;;;;;10.93;4.07;;;;;;;-18.24;53.70;99879.31;4768738;29;20601;-80
2023/01/06 05:04:01;;;;;;;12.43;4.20;;;;;;;-17.83;53.72;99964.78;4769315;29;20078;-81
2023/01/06 05:06:28;;;;;;;13.57;4.00;;;;;;;-17.91;54.40;99948.19;4769294;30;20142;-79
2023/01/06 05:08:54;;;;;;;15.93;6.60;;;;;;;-17.90;54.74;99959.91;4781911;30;20047;-81
2023/01/06 05:11:22;;;;;;;13.10;4.57;;;;;;;-17.86;54.51;99959.47;4795746;30;20047;-81
2023/01/06 05:13:49;;;;;;;11.33;3.23;;;;;;;-18.04;53.85;99943.56;4769238;30;20067;-82
2023/01/06 05:16:27;;;;;;;8.63;3.17;;;;;;;-17.78;53.58;99988.53;4767716;29;20411;-80
2023/01/06 05:18:55;;;;;;;6.43;2.60;;;;;;;-17.72;54.20;99993.25;4770710;30;20047;-82
2023/01/06 05:21:23;;;;;;;4.07;2.10;;;;;;;-18.00;54.35;99957.19;4767560;30;20407;-81
2023/01/06 05:23:50;;;;;;;9.97;3.20;;;;;;;-18.16;54.54;99928.22;4768747;30;20499;-80
2023/01/06 05:26:19;;;;;;;4.80;1.60;;;;;;;-17.85;54.38;100001.03;4783807;30;20581;-80
2023/01/06 05:28:46;;;;;;;6.00;1.73;;;;;;;-17.92;54.01;100014.41;4787576;29;20055;-83
2023/01/06 05:31:13;;;;;;;8.67;1.97;;;;;;;-18.97;53.96;99831.94;4793266;29;20097;-83
2023/01/06 05:33:39;;;;;;;7.93;3.07;;;;;;;-18.02;54.21;99981.88;4784746;29;20208;-80
2023/01/06 05:36:11;;;;;;;3.97;1.83;;;;;;;-18.12;54.34;99980.03;4768595;30;20047;-82
2023/01/06 05:38:37;;;;;;;13.53;4.37;;;;;;;-17.99;54.28;99989.69;4768165;30;20110;-82
2023/01/06 05:41:04;;;;;;;6.20;2.70;;;;;;;-18.15;54.58;99956.44;4768518;30;20542;-80
2023/01/06 05:43:35;;;;;;;6.87;3.20;;;;;;;-17.72;54.55;100033.06;4769671;30;20103;-81
2023/01/06 05:46:06;;;;;;;7.17;2.30;;;;;;;-17.68;54.65;100045.09;4767531;30;20138;-81
2023/01/06 05:48:33;;;;;;;10.13;4.28;;;;;;;-17.64;54.25;100043.81;4767578;30;20150;-81
2023/01/06 05:51:03;;;;;;;26.60;8.80;;;;;;;-18.29;53.76;99935.97;4770789;30;20040;-81
2023/01/06 05:53:31;;;;;;;16.10;5.23;;;;;;;-17.54;54.80;100065.59;4768993;30;20044;-81
2023/01/06 05:56:02;;;;;;;4.50;2.17;;;;;;;-17.89;53.61;99999.81;4782806;30;20044;-81
2023/01/06 05:58:35;;;;;;;5.18;2.83;;;;;;;-17.73;54.08;100026.31;4783454;29;20058;-81
2023/01/06 06:01:15;;;;;;;8.37;3.53;;;;;;;-17.49;53.84;100069.41;4772039;29;20055;-80
2023/01/06 06:03:44;;;;;;;5.07;1.70;;;;;;;-17.44;53.47;100063.34;4756412;30;20071;-81
2023/01/06 06:06:21;;;;;;;4.23;2.13;;;;;;;-18.33;54.36;99909.03;4787979;30;20077;-81
2023/01/06 06:08:51;;;;;;;7.60;3.13;;;;;;;-17.24;53.62;100064.53;4786808;30;20052;-81
2023/01/06 06:11:18;;;;;;;5.03;1.90;;;;;;;-17.04;54.06;100040.13;4772222;29;20108;-81
2023/01/06 06:13:51;;;;;;;3.90;2.07;;;;;;;-16.46;53.64;100051.78;4771308;30;20056;-83
2023/01/06 06:16:24;;;;;;;6.87;2.73;;;;;;;-15.80;53.81;100067.47;4755761;30;20047;-82
2023/01/06 06:18:54;;;;;;;7.77;2.80;;;;;;;-15.42;54.37;100018.66;4786327;30;20120;-81
2023/01/06 06:21:25;;;;;;;6.03;1.70;;;;;;;-14.35;54.12;100069.59;4773757;30;20047;-80
2023/01/06 06:24:09;;;;;;;8.80;3.15;;;;;;;-14.97;53.29;99823.09;4771499;30;20044;-81
2023/01/06 06:26:35;;;;;;;3.57;1.87;;;;;;;-12.91;53.75;100071.66;4756963;30;20058;-80
2023/01/06 06:29:05;;;;;;;7.90;2.47;;;;;;;-12.40;52.36;100061.03;4786740;29;20046;-79
2023/01/06 06:31:46;;;;;;;7.10;2.63;;;;;;;-11.73;51.87;100075.03;4772781;30;20044;-81
2023/01/06 06:34:59;;;;;;;3.80;1.85;;;;;;;-11.78;51.29;99947.31;4768905;30;20051;-82
2023/01/06 06:38:00;;;;;;;11.93;2.47;;;;;;;-11.02;52.13;99973.47;4743108;30;20052;-81
2023/01/06 06:40:42;;;;;;;6.07;2.77;;;;;;;-9.78;52.36;100061.03;4755202;30;20531;-81
2023/01/06 06:43:31;;;;;;;4.67;2.43;;;;;;;-10.07;52.27;99904.47;4773859;30;20503;-80
2023/01/06 06:46:07;;;;;;;6.53;3.22;;;;;;;-9.13;50.87;99983.53;4774713;30;20063;-83
2023/01/06 06:48:42;;;;;;;11.07;3.30;;;;;;;-8.11;51.58;100079.81;4784058;30;20138;-82
2023/01/06 06:51:15;;;;;;;6.80;2.80;;;;;;;-7.68;49.64;100051.56;4771085;29;20108;-81
2023/01/06 06:53:42;;;;;;;9.73;3.35;;;;;;;-7.15;50.79;100072.03;4788528;29;20051;-84
2023/01/06 06:56:09;;;;;;;6.90;2.95;;;;;;;-6.55;50.42;100071.63;4786220;29;20056;-81
2023/01/06 06:58:38;;;;;;;8.15;3.17;;;;;;;-5.88;48.12;100074.06;4772963;30;20059;-81
2023/01/06 07:01:21;;;;;;;5.47;2.60;;;;;;;-5.78;49.20;100015.53;4785774;29;20050;-83
2023/01/06 07:03:50;;;;;;;6.32;2.58;;;;;;;-4.95;49.62;100008.44;4786666;29;20067;-81
2023/01/06 07:06:27;;;;;;;7.53;3.17;;;;;;;-3.86;48.72;100075.38;4770875;29;20048;-82
2023/01/06 07:08:56;;;;;;;9.00;2.78;;;;;;;-5.05;47.62;99842.06;4771735;30;20521;-82
2023/01/06 07:11:22;;;;;;;9.00;3.55;;;;;;;-3.74;48.06;99913.22;4769100;29;20134;-82
2023/01/06 07:13:57;;;;;;;8.55;3.95;;;;;;;-3.58;47.00;99842.75;4770234;29;20063;-82
2023/01/06 07:16:26;;;;;;;9.05;3.25;;;;;;;-2.93;46.70;99822.88;4785368;29;20070;-82
2023/01/06 07:18:52;;;;;;;6.50;3.00;;;;;;;-1.27;45.79;100057.13;4785687;30;20051;-83
2023/01/06 07:21:21;;;;;;;8.68;3.05;;;;;;;-2.28;45.10;99927.72;4774243;30;20043;-84
2023/01/06 07:23:47;;;;;;;5.95;3.30;;;;;;;-0.83;45.79;100057.28;4774647;30;20054;-81
2023/01/06 07:26:19;;;;;;;5.95;3.00;;;;;;;-0.36;43.75;99988.38;4786356;29;20050;-80
2023/01/06 07:28:45;;;;;;;7.10;3.20;;;;;;;-0.36;42.71;99884.41;4767860;29;20048;-80
2023/01/06 07:31:18;;;;;;;8.82;4.10;;;;;;;0.39;42.79;100018.44;4754539;30;20106;-81
2023/01/06 07:33:52;;;;;;;9.27;4.10;;;;;;;1.49;43.01;100087.94;4755760;30;20063;-81
2023/01/06 07:36:19;;;;;;;10.18;4.93;;;;;;;2.14;41.99;100045.41;4757506;30;20058;-78
2023/01/06 07:39:12;;;;;;;9.20;4.60;;;;;;;2.18;37.96;100078.06;4775445;30;20146;-79
2023/01/06 07:42:09;;;;;;;8.82;4.68;;;;;;;1.44;40.31;99909.94;4769790;30;20522;-79
2023/01/06 07:44:35;;;;;;;12.32;4.90;;;;;;;2.77;39.55;100082.25;4787987;29;20049;-82
2023/01/06 07:47:02;;;;;;;19.02;7.55;;;;;;;2.85;38.53;100040.56;4770548;29;20517;-80
2023/01/06 07:49:28;;;;;;;19.23;9.02;;;;;;;3.26;38.12;100104.16;4770880;30;20056;-80
2023/01/06 07:51:57;;;;;;;26.95;10.30;;;;;;;2.62;38.53;99979.97;4772909;30;20044;-82
2023/01/06 07:54:27;;;;;;;26.35;9.98;;;;;;;2.81;38.13;99951.34;4773111;29;20054;-80
2023/01/06 07:56:53;;;;;;;24.35;9.65;;;;;;;4.07;37.03;100067.47;4777491;29;20048;-82
2023/01/06 07:59:19;;;;;;;17.35;7.55;;;;;;;4.48;36.36;100044.25;4788731;30;20040;-82
2023/01/06 08:01:45;;;;;;;15.88;7.20;;;;;;;4.67;35.80;100058.34;4788293;30;20047;-80
2023/01/06 08:04:18;;;;;;;9.85;5.22;;;;;;;5.14;34.91;100064.34;4803344;30;20114;-82
2023/01/06 08:06:44;;;;;;;9.63;4.97;;;;;;;5.09;33.95;100086.63;4787954;30;20062;-80
2023/01/06 08:09:10;;;;;;;10.77;5.43;;;;;;;5.74;34.52;100110.94;4805429;29;20026;-79
2023/01/06 08:11:39;;;;;;;14.15;7.10;;;;;;;6.16;33.20;100109.00;4805590;30;20019;-81
2023/01/06 08:14:13;;;;;;;10.48;5.00;;;;;;;6.07;33.17;100102.00;4792323;30;20041;-82
2023/01/06 08:16:40;;;;;;;10.48;4.63;;;;;;;6.52;32.61;100106.91;4791956;30;20081;-79
2023/01/06 08:19:06;;;;;;;8.15;4.60;;;;;;;6.95;32.14;100114.31;4792283;29;20129;-81
2023/01/06 08:21:32;;;;;;;7.82;4.53;;;;;;;7.18;31.88;100101.59;4774015;29;20057;-80
2023/01/06 08:23:59;;;;;;;9.20;4.75;;;;;;;7.25;31.23;100077.53;4772050;30;20042;-80
2023/01/06 08:26:25;;;;;;;10.70;5.47;;;;;;;7.05;30.97;100123.91;4776255;30;20057;-81
2023/01/06 08:28:55;;;;;;;12.88;6.93;;;;;;;7.41;31.03;100127.69;4776027;30;20036;-81
2023/01/06 08:31:22;;;;;;;13.80;7.10;;;;;;;7.80;29.97;100126.31;4790042;30;20101;-81
2023/01/06 08:33:50;;;;;;;13.30;6.65;;;;;;;7.82;28.95;100100.41;4774039;30;20138;-79
2023/01/06 08:36:18;;;;;;;10.75;5.70;;;;;;;8.32;28.67;100140.47;4752916;30;20092;-80
2023/01/06 08:38:44;;;;;;;10.27;5.40;;;;;;;8.44;28.62;100135.38;4753830;30;20047;-82
2023/01/06 08:41:11;;;;;;;7.85;5.05;;;;;;;8.67;28.32;100126.84;4751693;30;20071;-81
2023/01/06 08:43:42;;;;;;;11.25;6.00;;;;;;;8.11;28.13;100058.28;4753167;30;20036;-80
2023/01/06 08:46:18;;;;;;;14.75;7.45;;;;;;;8.81;28.41;100132.09;4766831;30;20175;-82
2023/01/06 08:48:47;;;;;;;12.45;6.68;;;;;;;8.69;27.51;100070.66;4767297;30;20138;-80
2023/01/06 08:51:17;;;;;;;9.27;5.68;;;;;;;9.01;26.22;100131.31;4766229;30;20530;-80
2023/01/06 08:53:43;;;;;;;12.90;8.55;;;;;;;8.03;25.30;100034.91;4755165;30;20067;-82
2023/01/06 08:56:26;;;;;;;9.65;5.60;;;;;;;8.58;26.48;100112.13;4767762;30;20048;-82
2023/01/06 08:59:03;;;;;;;10.40;4.97;;;;;;;9.55;26.13;100144.38;4753628;30;20052;-80
2023/01/06 09:02:30;;;;;;;;;;;;;;;;;;;;;
2023/01/06 09:05:42;;;;;;;11.05;5.75;;;;;;;8.93;24.29;99922.78;4751198;30;20067;-82
2023/01/06 09:08:22;;;;;;;11.90;5.22;;;;;;;9.11;24.70;99946.13;4766263;30;20511;-82
2023/01/06 09:11:20;;;;;;;9.95;5.32;;;;;;;9.46;24.92;99952.13;4764641;30;20056;-80
2023/01/06 09:14:15;;;;;;;9.15;5.25;;;;;;;10.73;24.60;100141.59;4777051;30;20066;-82
2023/01/06 09:16:41;;;;;;;9.57;5.00;;;;;;;9.83;24.41;99941.63;4754454;30;20058;-80
2023/01/06 09:19:32;;;;;;;8.63;5.15;;;;;;;10.02;23.83;99962.38;4770732;29;20046;-80
2023/01/06 09:22:06;;;;;;;11.70;6.20;;;;;;;11.01;23.63;100131.06;4784383;30;20051;-82
2023/01/06 09:24:32;;;;;;;10.63;5.55;;;;;;;10.92;23.50;100108.56;4768696;30;20062;-78
2023/01/06 09:26:59;;;;;;;12.18;5.82;;;;;;;10.74;23.25;100101.69;4754999;30;20048;-83
2023/01/06 09:29:27;;;;;;;9.38;4.80;;;;;;;10.81;22.90;100095.59;4768692;30;20515;-81
2023/01/06 09:31:53;;;;;;;9.43;4.72;;;;;;;10.70;22.89;100103.44;4773112;30;20138;-80
2023/01/06 09:34:19;;;;;;;10.40;5.78;;;;;;;10.36;22.51;100106.16;4754870;30;20050;-82
2023/01/06 09:36:49;;;;;;;8.93;5.40;;;;;;;10.09;22.44;100101.88;4755336;30;20157;-80
2023/01/06 09:39:15;;;;;;;10.40;6.32;;;;;;;10.31;22.21;100130.44;4771302;30;20048;-81
2023/01/06 09:42:20;;;;;;;10.95;6.10;;;;;;;10.12;21.78;100143.47;4755139;30;20056;-84
2023/01/06 09:46:00;;;;;;;9.10;6.05;;;;;;;8.63;20.66;100099.16;4774076;29;20059;-80
2023/01/06 09:48:39;;;;;;;10.77;5.38;;;;;;;8.67;21.88;100152.81;4752413;30;20059;-80
2023/01/06 09:51:09;;;;;;;8.40;5.60;;;;;;;8.46;21.87;100126.72;4783187;30;20451;-83
2023/01/06 09:53:45;;;;;;;10.32;5.63;;;;;;;8.47;21.68;100115.50;4769655;29;20468;-82
2023/01/06 09:56:24;;;;;;;10.23;5.97;;;;;;;7.28;21.92;99906.72;4754312;30;20035;-81
2023/01/06 09:59:03;;;;;;;11.90;6.20;;;;;;;8.66;21.14;100064.56;4768074;30;20138;-81
2023/01/06 10:01:40;;;;;;;8.90;5.57;;;;;;;8.76;21.40;100126.03;4784307;30;20051;-81
2023/01/06 10:04:36;;;;;;;9.57;5.32;;;;;;;6.86;20.86;99931.38;4768953;30;20050;-81
2023/01/06 10:07:47;;;;;;;8.48;4.95;;;;;;;7.44;20.90;100150.19;4769251;29;20039;-82
2023/01/06 10:10:36;;;;;;;9.38;5.07;;;;;;;5.81;21.31;99951.81;4766142;30;20143;-83
2023/01/06 10:13:52;;;;;;;11.52;5.75;;;;;;;5.42;21.08;99975.34;4782424;30;20060;-83
2023/01/06 10:17:37;;;;;;;11.38;6.50;;;;;;;4.24;21.39;100177.72;4765534;30;20044;-82
2023/01/06 10:20:34;;;;;;;14.60;7.80;;;;;;;1.94;21.75;100185.19;4767818;30;20079;-79
2023/01/06 10:23:15;;;;;;;15.00;7.35;;;;;;;0.13;22.50;100204.31;4769751;30;20127;-82
2023/01/06 10:25:52;;;;;;;13.45;7.05;;;;;;;-1.60;23.74;100152.72;4784870;29;20051;-83
2023/01/06 10:28:33;;;;;;;14.07;6.50;;;;;;;-2.09;23.93;100222.72;4792589;30;20503;-82
2023/01/06 10:31:22;;;;;;;10.00;5.15;;;;;;;-3.38;23.97;100137.25;4771207;30;20047;-83
2023/01/06 10:34:02;;;;;;;14.73;6.10;;;;;;;-3.21;25.01;100241.69;4770613;30;20051;-82
2023/01/06 10:36:38;;;;;;;11.07;5.90;;;;;;;-3.75;25.23;100259.09;4754960;30;20052;-81
2023/01/06 10:39:08;;;;;;;10.20;5.32;;;;;;;-4.79;25.78;100164.25;4739771;30;20058;-81
2023/01/06 10:42:54;;;;;;;11.68;5.03;;;;;;;-4.85;26.37;100257.03;4770105;30;20058;-81
2023/01/06 10:44:45;;;;;;;10.43;4.78;;;;;;;-5.71;26.85;100198.47;4768829;30;20090;-82
2023/01/06 10:47:32;;;;;;;15.32;5.10;;;;;;;-5.73;27.19;100264.28;4787259;30;20058;-82
2023/01/06 10:49:59;;;;;;;12.90;5.47;;;;;;;-6.38;27.87;100197.69;4772075;30;20047;-81
2023/01/06 10:52:33;;;;;;;12.50;5.13;;;;;;;-7.07;27.90;100124.78;4786303;30;20517;-81
2023/01/06 10:55:19;;;;;;;17.33;7.20;;;;;;;-6.54;28.43;100260.78;4772235;29;20181;-82
2023/01/06 11:01:38;;;;;;;15.20;6.18;;;;;;;-7.44;29.51;100269.84;4773744;29;20055;-80
2023/01/06 11:04:12;;;;;;;14.88;5.95;;;;;;;-7.82;29.89;100273.91;4775692;29;20055;-83
2023/01/06 11:07:11;;;;;;;12.80;5.15;;;;;;;-8.28;30.04;100261.34;4776856;30;20104;-81
2023/01/06 11:09:45;;;;;;;17.15;5.63;;;;;;;-8.79;30.05;100244.97;4778698;29;20056;-82
2023/01/06 11:12:25;;;;;;;14.20;5.78;;;;;;;-8.89;30.25;100245.91;4791852;30;20080;-81
2023/01/06 11:14:58;;;;;;;12.20;5.45;;;;;;;-9.33;30.27;100223.22;4790513;30;20048;-80
2023/01/06 11:17:26;;;;;;;13.83;5.37;;;;;;;-9.34;30.92;100266.81;4789367;30;20061;-81
2023/01/06 11:20:17;;;;;;;14.17;5.80;;;;;;;-9.45;31.24;100288.66;4787625;30;20117;-83
2023/01/06 11:22:47;;;;;;;10.03;5.00;;;;;;;-10.49;32.05;100147.06;4788612;29;20051;-83
2023/01/06 11:25:35;;;;;;;12.93;5.13;;;;;;;-9.88;31.60;100287.00;4773425;30;20035;-82
2023/01/06 11:28:39;;;;;;;;;;;;;;;-10.02;32.21;100290.06;4775933;30;20054;-83
2023/01/06 11:31:18;;;;;;;13.83;4.97;;;;;;;-11.92;31.95;100012.34;4775457;30;19922;-79
2023/01/06 11:33:52;;;;;;;13.23;5.30;;;;;;;-10.24;32.09;100305.06;4781251;29;20055;-82
2023/01/06 11:36:25;;;;;;;12.70;4.83;;;;;;;-11.54;31.54;100162.84;4773893;30;20048;-84
2023/01/06 11:38:55;;;;;;;13.00;5.57;;;;;;;-11.20;31.76;100243.59;4774851;30;20083;-84
2023/01/06 11:41:36;;;;;;;14.83;5.67;;;;;;;-11.00;32.36;100298.81;4766922;30;20044;-82
2023/01/06 11:44:52;;;;;;;11.37;4.23;;;;;;;-12.91;32.61;99984.81;4790365;29;20422;-86
2023/01/06 11:47:40;;;;;;;9.20;4.47;;;;;;;-13.09;33.24;100003.25;4765790;30;20059;-84
2023/01/06 11:50:17;;;;;;;13.37;5.60;;;;;;;-12.13;32.95;100188.00;4788871;30;20071;-83
2023/01/06 11:52:59;;;;;;;13.57;5.10;;;;;;;-11.92;33.01;100218.19;4774541;30;20027;-85
2023/01/06 11:55:29;;;;;;;12.77;5.40;;;;;;;-11.94;33.03;100222.19;4788289;29;20047;-80
2023/01/06 11:58:18;;;;;;;15.00;4.93;;;;;;;-11.65;33.06;100217.19;4792898;29;20132;-84
2023/01/06 12:00:51;;;;;;;8.60;3.67;;;;;;;-11.82;33.00;100209.81;4885763;24;20054;-83
2023/01/06 12:03:42;;;;;;;11.07;4.23;;;;;;;-12.30;32.91;100148.00;4839750;29;20064;-84
2023/01/06 12:06:33;;;;;;;11.23;4.23;;;;;;;-11.87;33.49;100252.13;4817604;29;20042;-82